Time;durP1;ratioP1;P1;durP2;ratioP2;P2;SDS_P1;SDS_P2;PMS_P1;PMS_P2;Temp;Humidity;BMP_temperature;BMP_pressure;BME280_temperature;BME280_humidity;BME280_pressure;Samples;Min_cycle;Max_cycle;Signal;HPM_P1;HPM_P2
2022/12/03 00:02:03;;;;;;;60.67;21.07;;;-1.10;99.90;;;;;;4416205;28;659361;-67
2022/12/03 00:04:50;;;;;;;57.60;21.20;;;-1.10;99.90;;;;;;4392535;28;658592;-67
2022/12/03 00:07:37;;;;;;;60.77;21.80;;;-1.20;99.90;;;;;;4412111;28;659701;-67
2022/12/03 00:10:24;;;;;;;49.53;19.20;;;-1.10;99.90;;;;;;4414638;28;658680;-67
2022/12/03 00:13:13;;;;;;;54.80;21.93;;;-1.10;99.90;;;;;;4384903;28;659992;-67
2022/12/03 00:16:00;;;;;;;56.07;20.17;;;-1.10;99.90;;;;;;4397040;28;659446;-67
2022/12/03 00:18:47;;;;;;;48.63;20.73;;;-1.10;99.90;;;;;;4424740;28;660140;-67
2022/12/03 00:21:34;;;;;;;47.57;19.90;;;-1.10;99.90;;;;;;4414251;28;659011;-68
2022/12/03 00:24:21;;;;;;;52.17;19.03;;;-1.20;99.90;;;;;;4388973;28;659407;-68
2022/12/03 00:27:08;;;;;;;45.40;19.70;;;-1.20;99.90;;;;;;4410438;28;659606;-68
2022/12/03 00:29:57;;;;;;;50.23;19.53;;;-1.20;99.90;;;;;;4395179;28;658621;-67
2022/12/03 00:32:44;;;;;;;58.00;22.30;;;-1.20;99.90;;;;;;4412161;28;658640;-67
2022/12/03 00:35:31;;;;;;;50.77;21.37;;;-1.20;99.90;;;;;;4392230;28;658533;-67
2022/12/03 00:38:18;;;;;;;50.72;20.83;;;-1.20;99.90;;;;;;4407952;28;659283;-68
2022/12/03 00:41:05;;;;;;;52.43;20.60;;;-1.20;99.90;;;;;;4396016;28;659737;-67
2022/12/03 00:43:56;;;;;;;57.33;23.07;;;-1.20;99.90;;;;;;4413138;28;659367;-67
2022/12/03 00:46:44;;;;;;;58.10;23.20;;;-1.10;99.90;;;;;;4391825;28;659617;-68
2022/12/03 00:49:31;;;;;;;69.20;26.27;;;-1.10;99.90;;;;;;4391320;28;660571;-67
2022/12/03 00:52:18;;;;;;;60.30;24.13;;;-1.10;99.90;;;;;;4412010;28;658606;-67
2022/12/03 00:55:06;;;;;;;61.63;24.77;;;-1.10;99.90;;;;;;4395750;28;659102;-66
2022/12/03 00:57:53;;;;;;;60.40;22.30;;;-1.10;99.90;;;;;;4410940;28;659532;-67
2022/12/03 01:00:40;;;;;;;51.63;20.40;;;-1.10;99.90;;;;;;4528984;28;658952;-67
2022/12/03 01:03:29;;;;;;;53.77;20.73;;;-1.10;99.90;;;;;;4748336;28;548925;-67
2022/12/03 01:06:16;;;;;;;57.30;22.17;;;-1.10;99.90;;;;;;4391482;28;658615;-67
2022/12/03 01:09:03;;;;;;;59.77;22.30;;;-1.10;99.90;;;;;;4414408;28;659584;-68
2022/12/03 01:11:50;;;;;;;57.10;21.47;;;-1.10;99.90;;;;;;4390392;28;658958;-67
2022/12/03 01:14:37;;;;;;;57.90;23.30;;;-1.10;99.90;;;;;;4412950;28;660172;-68
2022/12/03 01:17:24;;;;;;;52.33;21.57;;;-1.20;99.90;;;;;;4410520;28;658109;-68
2022/12/03 01:20:13;;;;;;;54.87;20.63;;;-1.10;99.90;;;;;;4385867;28;659728;-67
2022/12/03 01:23:00;;;;;;;55.30;21.50;;;-1.20;99.90;;;;;;4393690;28;658767;-67
2022/12/03 01:25:47;;;;;;;50.97;19.80;;;-1.20;99.90;;;;;;4415304;28;659554;-68
2022/12/03 01:28:34;;;;;;;53.80;19.90;;;-1.20;99.90;;;;;;4418243;28;658714;-68
2022/12/03 01:34:26;;;;;;;56.23;21.67;;;-1.10;99.90;;;;;;4394179;28;658907;-67
2022/12/03 01:37:14;;;;;;;53.77;20.17;;;-1.10;99.90;;;;;;4416909;28;660003;-67
2022/12/03 01:40:02;;;;;;;49.13;18.13;;;-1.10;99.90;;;;;;4397693;28;658485;-67
2022/12/03 01:42:49;;;;;;;51.77;20.33;;;-1.10;99.90;;;;;;4415762;28;659550;-67
2022/12/03 01:45:36;;;;;;;42.43;19.70;;;-1.10;99.90;;;;;;4397898;28;658618;-67
2022/12/03 01:48:23;;;;;;;53.47;20.37;;;-1.10;99.90;;;;;;4415770;28;659505;-67
2022/12/03 01:51:10;;;;;;;52.30;20.40;;;-1.10;99.90;;;;;;4398644;28;658501;-67
2022/12/03 01:53:59;;;;;;;53.65;22.00;;;-1.10;99.90;;;;;;4414365;28;658393;-68
2022/12/03 01:56:46;;;;;;;44.73;20.13;;;-1.10;99.90;;;;;;4398794;28;659642;-67
2022/12/03 01:59:34;;;;;;;49.90;20.42;;;-1.10;99.90;;;;;;4412411;28;659307;-68
2022/12/03 02:02:23;;;;;;;48.27;19.07;;;-1.10;99.90;;;;;;4393191;28;658717;-67
2022/12/03 02:05:15;;;;;;;47.00;18.37;;;-1.10;99.90;;;;;;4403429;28;658653;-67
2022/12/03 02:08:17;;;;;;;53.77;19.67;;;-1.10;99.90;;;;;;4391529;28;659449;-67
2022/12/03 02:11:08;;;;;;;46.30;19.27;;;-1.10;99.90;;;;;;4408096;28;659200;-67
2022/12/03 02:13:57;;;;;;;51.27;20.33;;;-1.10;99.90;;;;;;4394160;28;659877;-67
2022/12/03 02:16:44;;;;;;;73.67;24.73;;;-1.10;99.90;;;;;;4419309;28;659136;-67
2022/12/03 02:19:31;;;;;;;51.73;21.17;;;-1.10;99.90;;;;;;4390343;28;659062;-68
2022/12/03 02:22:24;;;;;;;57.50;20.63;;;-1.10;99.90;;;;;;4414407;28;658654;-67
2022/12/03 02:25:17;;;;;;;52.80;20.77;;;-1.10;99.90;;;;;;4367187;28;659404;-66
2022/12/03 02:28:04;;;;;;;54.73;21.67;;;-1.10;99.90;;;;;;4393439;28;658549;-68
2022/12/03 02:30:51;;;;;;;59.07;21.67;;;-1.00;99.90;;;;;;4394201;28;659778;-67
2022/12/03 02:33:38;;;;;;;56.83;22.57;;;-1.10;99.90;;;;;;4413577;28;658814;-67
2022/12/03 02:36:26;;;;;;;63.50;23.93;;;-1.10;99.90;;;;;;4393646;28;660109;-67
2022/12/03 02:39:13;;;;;;;64.97;23.37;;;-1.10;99.90;;;;;;4419087;28;659251;-68
2022/12/03 02:45:08;;;;;;;66.97;24.53;;;-1.10;99.90;;;;;;4378253;28;658642;-67
2022/12/03 02:47:56;;;;;;;89.23;31.37;;;-1.10;99.90;;;;;;4372931;28;659423;-67
2022/12/03 02:50:45;;;;;;;74.00;23.57;;;-1.10;99.90;;;;;;4391381;28;659507;-68
2022/12/03 02:53:34;;;;;;;68.43;24.97;;;-1.10;99.90;;;;;;4373121;28;659339;-67
2022/12/03 02:56:23;;;;;;;63.50;23.10;;;-1.10;99.90;;;;;;4371367;28;658813;-67
2022/12/03 02:59:12;;;;;;;72.77;24.97;;;-1.10;99.90;;;;;;4374841;28;660160;-67
2022/12/03 03:02:00;;;;;;;74.93;24.40;;;-1.10;99.90;;;;;;4811073;28;658830;-67
2022/12/03 03:04:47;;;;;;;78.03;24.83;;;-1.10;99.90;;;;;;4418238;28;658363;-67
2022/12/03 03:07:34;;;;;;;66.15;23.25;;;-1.10;99.90;;;;;;4391167;28;660136;-68
2022/12/03 03:10:22;;;;;;;73.30;25.67;;;-1.10;99.90;;;;;;4373122;28;658657;-67
2022/12/03 03:13:10;;;;;;;72.40;24.02;;;-1.10;99.90;;;;;;4393933;28;658614;-68
2022/12/03 03:15:59;;;;;;;74.43;25.30;;;-1.10;99.90;;;;;;4367114;28;659552;-67
2022/12/03 03:18:46;;;;;;;68.27;22.73;;;-1.10;99.90;;;;;;4373159;28;658455;-67
2022/12/03 03:21:33;;;;;;;71.47;24.20;;;-1.10;99.90;;;;;;4394685;28;658778;-67
2022/12/03 03:24:20;;;;;;;66.83;23.00;;;-1.10;99.90;;;;;;4374700;28;658543;-67
2022/12/03 03:27:07;;;;;;;73.53;24.67;;;-1.10;99.90;;;;;;4391888;28;659265;-67
2022/12/03 03:29:54;;;;;;;70.00;23.70;;;-1.10;99.90;;;;;;4390591;28;658543;-67
2022/12/03 03:32:43;;;;;;;72.80;25.30;;;-1.20;99.90;;;;;;4374390;28;659448;-67
2022/12/03 03:35:30;;;;;;;79.90;25.52;;;-1.20;99.90;;;;;;4373849;28;658694;-66
2022/12/03 03:38:18;;;;;;;77.43;24.47;;;-1.20;99.90;;;;;;4395525;28;659765;-68
2022/12/03 03:41:05;;;;;;;74.15;24.73;;;-1.10;99.90;;;;;;4378871;28;658754;-67
2022/12/03 03:43:52;;;;;;;71.93;23.17;;;-1.20;99.90;;;;;;4408770;28;660036;-67
2022/12/03 03:46:40;;;;;;;73.27;22.70;;;-1.20;99.90;;;;;;4404359;28;658485;-67
2022/12/03 03:49:28;;;;;;;86.32;28.17;;;-1.20;99.90;;;;;;4410887;28;659155;-67
2022/12/03 03:52:16;;;;;;;80.20;26.77;;;-1.20;99.90;;;;;;4389509;28;658609;-67
2022/12/03 03:55:03;;;;;;;70.40;22.55;;;-1.10;99.90;;;;;;4415856;28;659089;-67
2022/12/03 03:57:50;;;;;;;71.63;23.38;;;-1.00;99.90;;;;;;4394610;28;658436;-67
2022/12/03 04:00:37;;;;;;;73.30;21.30;;;-1.10;99.90;;;;;;4417405;28;658883;-67
2022/12/03 04:03:24;;;;;;;63.93;21.57;;;-1.10;99.90;;;;;;4410911;28;659170;-68
2022/12/03 04:06:13;;;;;;;66.60;22.07;;;-1.10;99.90;;;;;;4393396;28;659218;-68
2022/12/03 04:09:00;;;;;;;73.80;23.23;;;-1.10;99.90;;;;;;4406701;28;658741;-67
2022/12/03 04:14:52;;;;;;;76.10;23.97;;;-1.10;99.90;;;;;;4362488;28;659775;-67
2022/12/03 04:17:39;;;;;;;76.00;23.15;;;-1.10;99.90;;;;;;4412171;28;658518;-68
2022/12/03 04:20:26;;;;;;;75.72;25.38;;;-1.10;99.90;;;;;;4389389;28;659663;-67
2022/12/03 04:23:14;;;;;;;81.83;25.63;;;-1.10;99.90;;;;;;4407984;28;659379;-68
2022/12/03 04:29:05;;;;;;;70.03;22.27;;;-1.10;99.90;;;;;;4367425;28;659280;-66
2022/12/03 04:38:02;;;;;;;79.60;24.73;;;-1.10;99.90;;;;;;4365752;28;659020;-69
2022/12/03 04:41:03;;;;;;;76.47;23.17;;;-1.10;99.90;;;;;;4417443;28;658669;-67
2022/12/03 04:46:55;;;;;;;75.87;23.97;;;-1.20;99.90;;;;;;4392068;28;659377;-68
2022/12/03 04:49:43;;;;;;;78.93;25.17;;;-1.20;99.90;;;;;;4412288;28;659531;-68
2022/12/03 04:52:30;;;;;;;205.43;42.50;;;-1.20;99.90;;;;;;4393121;28;658672;-67
2022/12/03 04:55:17;;;;;;;97.80;27.60;;;-1.10;99.90;;;;;;4415463;28;660543;-67
2022/12/03 04:58:06;;;;;;;73.67;24.10;;;-1.10;99.90;;;;;;4409083;28;659698;-67
2022/12/03 05:00:53;;;;;;;73.97;23.97;;;-1.10;99.90;;;;;;4557718;28;659227;-67
2022/12/03 05:03:40;;;;;;;101.23;28.43;;;-1.20;99.90;;;;;;4686637;28;536548;-67
2022/12/03 05:06:27;;;;;;;99.63;27.70;;;-1.20;99.90;;;;;;4413914;28;659338;-68
2022/12/03 05:09:14;;;;;;;115.10;28.63;;;-1.20;99.90;;;;;;4408261;28;658290;-68
2022/12/03 05:12:02;;;;;;;86.90;25.30;;;-1.10;99.90;;;;;;4384169;28;659740;-67
2022/12/03 05:14:51;;;;;;;94.57;25.93;;;-1.20;99.90;;;;;;4412438;28;658225;-67
2022/12/03 05:17:38;;;;;;;72.33;23.40;;;-1.20;99.90;;;;;;4384172;28;659289;-67
2022/12/03 05:20:43;;;;;;;82.67;26.40;;;-1.20;99.90;;;;;;4398527;28;658504;-67
2022/12/03 05:23:30;;;;;;;83.00;25.63;;;-1.20;99.90;;;;;;4366251;28;658211;-67
2022/12/03 05:26:17;;;;;;;69.80;23.57;;;-1.20;99.90;;;;;;4407534;28;659824;-68
2022/12/03 05:29:05;;;;;;;89.23;25.83;;;-1.20;99.90;;;;;;4410034;28;658545;-67
2022/12/03 05:31:53;;;;;;;80.72;25.25;;;-1.20;99.90;;;;;;4410007;28;658563;-68
2022/12/03 05:34:41;;;;;;;104.67;28.80;;;-1.20;99.90;;;;;;4391399;28;658534;-67
2022/12/03 05:37:28;;;;;;;83.00;25.60;;;-1.30;99.90;;;;;;4410518;28;659831;-67
2022/12/03 05:40:15;;;;;;;95.07;26.93;;;-1.20;99.90;;;;;;4398035;28;659617;-67
2022/12/03 05:43:01;;;;;;;74.70;24.27;;;-1.20;99.90;;;;;;4416866;28;658472;-68
2022/12/03 05:45:48;;;;;;;76.33;23.67;;;-1.20;99.90;;;;;;4416250;28;658590;-67
2022/12/03 05:48:37;;;;;;;134.80;31.80;;;-1.30;99.90;;;;;;4390351;28;660128;-67
2022/12/03 05:51:24;;;;;;;82.33;22.57;;;-1.30;99.90;;;;;;4413764;28;660697;-67
2022/12/03 05:54:11;;;;;;;85.77;23.40;;;-1.30;99.90;;;;;;4393985;28;658504;-68
2022/12/03 05:56:58;;;;;;;109.03;28.63;;;-1.30;99.90;;;;;;4406850;28;660320;-67
2022/12/03 05:59:45;;;;;;;112.25;30.70;;;-1.30;99.90;;;;;;4391607;28;659623;-67
2022/12/03 06:02:33;;;;;;;102.50;28.60;;;-1.40;99.90;;;;;;4410891;28;661224;-68
2022/12/03 06:05:21;;;;;;;112.07;30.07;;;-1.40;99.90;;;;;;4402603;28;659693;-67
2022/12/03 06:08:09;;;;;;;173.93;30.00;;;-1.30;99.90;;;;;;4405335;28;660142;-68
2022/12/03 06:10:56;;;;;;;104.23;27.93;;;-1.30;99.90;;;;;;4393122;28;659654;-67
2022/12/03 06:13:43;;;;;;;101.83;27.83;;;-1.30;99.90;;;;;;4416559;28;660845;-68
2022/12/03 06:16:30;;;;;;;106.80;30.03;;;-1.30;99.90;;;;;;4394606;28;659779;-68
2022/12/03 06:19:17;;;;;;;101.23;26.83;;;-1.30;99.90;;;;;;4412395;28;659579;-67
2022/12/03 06:22:06;;;;;;;107.67;25.67;;;-1.20;99.90;;;;;;4411631;28;659909;-67
2022/12/03 06:24:53;;;;;;;96.57;28.10;;;-1.20;99.90;;;;;;4387646;28;660551;-67
2022/12/03 06:27:40;;;;;;;109.20;28.20;;;-1.20;99.90;;;;;;4397397;28;658862;-67
2022/12/03 06:30:27;;;;;;;109.53;26.07;;;-1.30;99.90;;;;;;4417926;28;660811;-68
2022/12/03 06:33:14;;;;;;;126.93;32.83;;;-1.20;99.90;;;;;;4412342;28;659729;-67
2022/12/03 06:36:01;;;;;;;122.33;29.53;;;-1.20;99.90;;;;;;4395105;28;661789;-67
2022/12/03 06:38:50;;;;;;;192.40;26.77;;;-1.20;99.90;;;;;;4420076;28;659776;-67
2022/12/03 06:41:37;;;;;;;99.60;23.27;;;-1.20;99.90;;;;;;4393402;28;660558;-67
2022/12/03 06:44:24;;;;;;;174.20;27.27;;;-1.20;99.90;;;;;;4409526;28;659332;-67
2022/12/03 06:47:11;;;;;;;155.60;25.17;;;-1.20;99.90;;;;;;4395152;28;659826;-68
2022/12/03 06:49:58;;;;;;;228.90;27.38;;;-1.30;99.90;;;;;;4416319;28;659492;-67
2022/12/03 06:52:45;;;;;;;181.33;24.23;;;-1.30;99.90;;;;;;4392329;28;659598;-67
2022/12/03 06:55:34;;;;;;;134.93;25.70;;;-1.30;99.90;;;;;;4413349;28;660814;-67
2022/12/03 06:58:21;;;;;;;104.33;25.43;;;-1.30;99.90;;;;;;4388620;28;659268;-67
2022/12/03 07:01:08;;;;;;;92.93;25.13;;;-1.30;99.90;;;;;;4642840;28;660454;-68
2022/12/03 07:03:55;;;;;;;112.37;25.43;;;-1.30;99.90;;;;;;4646147;28;535147;-67
2022/12/03 07:06:42;;;;;;;176.82;28.08;;;-1.30;99.90;;;;;;4414305;28;660388;-67
2022/12/03 07:09:29;;;;;;;197.83;27.37;;;-1.30;99.90;;;;;;4407750;28;660291;-67
2022/12/03 07:12:18;;;;;;;307.33;30.53;;;-1.20;99.90;;;;;;4387018;28;660423;-67
2022/12/03 07:15:06;;;;;;;290.30;31.77;;;-1.10;99.90;;;;;;4400165;28;659446;-67
2022/12/03 07:17:53;;;;;;;178.57;32.10;;;-1.10;99.90;;;;;;4408692;28;660121;-67
2022/12/03 07:20:40;;;;;;;158.17;25.43;;;-1.10;99.90;;;;;;4394972;28;659560;-67
2022/12/03 07:23:27;;;;;;;203.90;29.03;;;-1.10;99.90;;;;;;4409950;28;660384;-68
2022/12/03 07:26:15;;;;;;;190.93;26.20;;;-1.10;99.90;;;;;;4408125;28;659555;-67
2022/12/03 07:29:03;;;;;;;127.25;24.52;;;-1.10;99.90;;;;;;4415037;28;659858;-68
2022/12/03 07:31:51;;;;;;;118.63;25.70;;;-1.00;99.90;;;;;;4390375;28;659881;-68
2022/12/03 07:34:38;;;;;;;219.50;26.80;;;-1.00;99.90;;;;;;4406801;28;660196;-68
2022/12/03 07:37:25;;;;;;;170.73;28.47;;;-0.90;99.90;;;;;;4399676;28;659687;-67
2022/12/03 07:40:13;;;;;;;132.50;28.63;;;-0.90;99.90;;;;;;4414307;28;659971;-68
2022/12/03 07:43:00;;;;;;;180.43;32.27;;;-0.90;99.90;;;;;;4392199;28;660481;-67
2022/12/03 07:45:49;;;;;;;252.32;37.72;;;-0.90;99.90;;;;;;4415748;28;659828;-67
2022/12/03 07:48:36;;;;;;;140.50;34.50;;;-0.90;99.90;;;;;;4389664;28;659624;-67
2022/12/03 07:51:23;;;;;;;162.90;30.20;;;-0.80;99.90;;;;;;4410620;28;660911;-68
2022/12/03 07:54:10;;;;;;;290.83;35.00;;;-0.80;99.90;;;;;;4391622;28;659527;-67
2022/12/03 07:56:57;;;;;;;166.30;30.83;;;-0.80;99.90;;;;;;4413113;28;661192;-67
2022/12/03 07:59:44;;;;;;;200.27;30.43;;;-0.70;99.90;;;;;;4415630;28;660804;-67
2022/12/03 08:02:33;;;;;;;134.10;32.13;;;-0.70;99.90;;;;;;4392686;28;659905;-67
2022/12/03 08:05:20;;;;;;;149.18;33.38;;;-0.70;99.90;;;;;;4399848;28;660165;-67
2022/12/03 08:08:07;;;;;;;136.37;28.90;;;-0.60;99.90;;;;;;4415083;28;661185;-67
2022/12/03 08:10:54;;;;;;;122.40;27.80;;;-0.60;99.90;;;;;;4411425;28;659770;-67
2022/12/03 08:13:41;;;;;;;276.60;34.43;;;-0.60;99.90;;;;;;4391492;28;659700;-67
2022/12/03 08:16:30;;;;;;;134.40;29.07;;;-0.50;99.90;;;;;;4411373;28;660304;-67
2022/12/03 08:19:18;;;;;;;179.47;29.90;;;-0.60;99.90;;;;;;4386717;28;660804;-68
2022/12/03 08:22:10;;;;;;;185.87;34.30;;;-0.50;99.90;;;;;;4388558;28;659653;-67
2022/12/03 08:24:58;;;;;;;163.87;30.10;;;-0.50;99.90;;;;;;4387892;28;660185;-68
2022/12/03 08:27:45;;;;;;;162.33;33.57;;;-0.40;99.90;;;;;;4390409;28;660646;-67
2022/12/03 08:30:32;;;;;;;145.35;30.80;;;-0.40;99.90;;;;;;4417976;28;659504;-67
2022/12/03 08:33:24;;;;;;;111.07;28.87;;;-0.40;99.90;;;;;;4408815;28;659459;-67
2022/12/03 08:36:13;;;;;;;127.30;27.60;;;-0.40;99.90;;;;;;4389906;28;660054;-68
2022/12/03 08:39:02;;;;;;;105.97;31.47;;;-0.40;99.90;;;;;;4392928;28;660422;-67
2022/12/03 08:44:55;;;;;;;129.47;33.30;;;-0.30;99.90;;;;;;4384277;28;659533;-67
2022/12/03 08:47:42;;;;;;;157.80;30.60;;;-0.30;99.90;;;;;;4388019;28;660702;-68
2022/12/03 08:50:30;;;;;;;181.73;32.30;;;-0.20;99.90;;;;;;4406319;28;659807;-67
2022/12/03 08:53:33;;;;;;;117.10;30.53;;;-0.20;99.90;;;;;;4389455;28;660674;-67
2022/12/03 08:56:22;;;;;;;146.17;34.63;;;-0.10;99.90;;;;;;4370032;28;659716;-67
2022/12/03 08:59:21;;;;;;;156.57;36.30;;;-0.10;99.90;;;;;;4409197;28;659233;-67
2022/12/03 09:02:09;;;;;;;138.37;34.80;;;0.10;99.90;;;;;;4388687;28;659803;-68
2022/12/03 09:04:56;;;;;;;154.77;36.63;;;0.20;99.90;;;;;;4386445;28;658588;-67
2022/12/03 09:07:43;;;;;;;128.57;28.90;;;0.30;99.90;;;;;;4407407;28;659452;-67
2022/12/03 09:10:32;;;;;;;108.33;26.80;;;0.40;99.90;;;;;;4385298;28;658847;-67
2022/12/03 09:13:19;;;;;;;130.03;28.30;;;0.50;99.90;;;;;;4407004;28;658577;-67
2022/12/03 09:16:07;;;;;;;145.05;32.30;;;0.50;99.90;;;;;;4388673;28;658717;-67
2022/12/03 09:18:54;;;;;;;134.17;35.13;;;0.60;99.90;;;;;;4403579;28;658801;-67
2022/12/03 09:21:41;;;;;;;137.40;29.67;;;0.60;99.90;;;;;;4386828;28;658826;-67
2022/12/03 09:24:28;;;;;;;104.63;35.57;;;0.50;99.90;;;;;;4410669;28;659715;-67
2022/12/03 09:27:16;;;;;;;110.50;33.40;;;0.60;99.90;;;;;;4392563;28;658995;-66
2022/12/03 09:30:04;;;;;;;100.50;30.70;;;0.60;99.90;;;;;;4407055;28;659826;-67
2022/12/03 09:32:51;;;;;;;127.63;37.07;;;0.70;99.90;;;;;;4385180;28;658711;-67
2022/12/03 09:35:38;;;;;;;116.50;33.27;;;0.70;99.90;;;;;;4411285;28;658755;-67
2022/12/03 09:38:26;;;;;;;115.37;32.23;;;0.70;99.90;;;;;;4392067;28;659081;-67
2022/12/03 09:41:13;;;;;;;156.13;40.00;;;0.70;99.90;;;;;;4411267;28;659072;-67
2022/12/03 09:44:01;;;;;;;163.27;41.03;;;0.70;99.90;;;;;;4393271;28;658559;-67
2022/12/03 09:46:49;;;;;;;117.47;29.97;;;0.70;99.90;;;;;;4409167;28;658376;-67
2022/12/03 09:49:36;;;;;;;118.27;29.87;;;0.60;99.90;;;;;;4386778;28;658720;-67
2022/12/03 09:52:24;;;;;;;102.13;31.43;;;0.60;99.90;;;;;;4408047;28;659246;-67
2022/12/03 09:55:13;;;;;;;112.20;33.33;;;0.60;99.90;;;;;;4385055;28;658518;-67
2022/12/03 09:58:00;;;;;;;152.15;33.00;;;0.60;99.90;;;;;;4389357;28;659109;-67
2022/12/03 10:00:51;;;;;;;126.83;33.03;;;0.70;99.90;;;;;;4417090;28;658412;-64
2022/12/03 10:03:38;;;;;;;113.07;34.47;;;0.70;99.90;;;;;;4392351;28;659227;-64
2022/12/03 10:06:25;;;;;;;116.77;34.03;;;0.70;99.90;;;;;;4397808;28;658452;-66
2022/12/03 10:09:13;;;;;;;131.43;40.03;;;0.80;99.90;;;;;;4414147;28;658755;-65
2022/12/03 10:12:00;;;;;;;125.38;35.50;;;0.90;99.90;;;;;;4397676;28;658562;-65
2022/12/03 10:14:47;;;;;;;136.85;37.90;;;0.90;99.90;;;;;;4421374;28;658288;-64
2022/12/03 10:17:36;;;;;;;129.73;42.33;;;0.90;99.90;;;;;;4411595;28;658612;-65
2022/12/03 10:20:24;;;;;;;110.07;32.67;;;0.90;99.90;;;;;;4386586;28;658667;-64
2022/12/03 10:23:19;;;;;;;118.47;33.63;;;0.90;99.90;;;;;;4396592;28;658940;-65
2022/12/03 10:26:06;;;;;;;108.57;33.00;;;1.00;99.90;;;;;;4394342;28;658900;-65
2022/12/03 10:28:55;;;;;;;157.07;41.00;;;1.10;99.90;;;;;;4409659;28;659269;-65
2022/12/03 10:31:42;;;;;;;117.07;33.23;;;1.10;99.90;;;;;;4387496;28;659760;-64
2022/12/03 10:34:32;;;;;;;137.47;46.87;;;1.10;99.90;;;;;;4406227;28;658588;-65
2022/12/03 10:37:19;;;;;;;100.73;34.93;;;1.20;99.90;;;;;;4393465;28;658746;-65
2022/12/03 10:40:08;;;;;;;106.50;35.00;;;1.20;99.90;;;;;;4391381;28;658612;-64
2022/12/03 10:43:13;;;;;;;138.47;39.00;;;1.20;99.90;;;;;;4396586;28;658785;-66
2022/12/03 10:46:10;;;;;;;117.18;37.30;;;1.10;99.90;;;;;;4389068;28;658997;-66
2022/12/03 10:49:13;;;;;;;106.47;36.47;;;1.00;99.90;;;;;;4367609;28;659678;-64
2022/12/03 10:52:02;;;;;;;106.10;34.37;;;1.20;99.90;;;;;;4368523;28;658543;-65
2022/12/03 10:54:49;;;;;;;106.03;33.13;;;1.10;99.90;;;;;;4405661;28;658645;-65
2022/12/03 10:57:36;;;;;;;95.23;33.37;;;1.20;99.90;;;;;;4389577;28;659118;-65
2022/12/03 11:00:24;;;;;;;76.37;26.23;;;1.40;99.90;;;;;;4471580;28;657976;-66
2022/12/03 11:03:17;;;;;;;85.37;28.83;;;1.50;99.90;;;;;;4803432;28;534137;-64
2022/12/03 11:06:04;;;;;;;101.03;31.73;;;1.50;99.90;;;;;;4388564;28;658295;-64
2022/12/03 11:08:53;;;;;;;93.35;32.35;;;1.50;99.90;;;;;;4390773;28;658658;-65
2022/12/03 11:11:40;;;;;;;82.83;29.03;;;1.50;99.90;;;;;;4399623;28;657495;-66
2022/12/03 11:15:05;;;;;;;91.73;31.80;;;1.50;99.90;;;;;;4414541;28;659097;-65
2022/12/03 11:17:52;;;;;;;90.40;31.77;;;1.50;99.90;;;;;;4395401;28;657685;-65
2022/12/03 11:21:03;;;;;;;84.93;29.17;;;1.60;99.90;;;;;;4407763;28;658685;-64
2022/12/03 11:24:18;;;;;;;92.73;30.97;;;1.50;99.90;;;;;;4366956;28;657895;-65
2022/12/03 11:27:20;;;;;;;87.57;32.57;;;1.50;99.90;;;;;;4366084;28;657801;-64
2022/12/03 11:30:10;;;;;;;90.80;32.90;;;1.60;99.90;;;;;;4364351;28;657493;-64
2022/12/03 11:33:00;;;;;;;94.17;33.57;;;1.50;99.90;;;;;;4395222;28;658894;-65
2022/12/03 11:36:18;;;;;;;89.80;32.27;;;1.50;99.90;;;;;;4383978;28;658830;-65
2022/12/03 11:39:07;;;;;;;103.60;37.10;;;1.50;99.90;;;;;;4390763;28;657498;-65
2022/12/03 11:42:36;;;;;;;103.77;33.90;;;1.40;99.90;;;;;;4415602;28;658861;-66
2022/12/03 11:45:30;;;;;;;102.00;33.87;;;1.40;99.90;;;;;;4383051;28;658708;-64
2022/12/03 11:48:17;;;;;;;108.63;37.13;;;1.40;99.90;;;;;;4360505;28;659635;-64
2022/12/03 11:51:12;;;;;;;91.63;30.47;;;1.40;99.90;;;;;;4405173;28;659622;-64
2022/12/03 11:53:59;;;;;;;88.87;30.50;;;1.40;99.90;;;;;;4383115;28;657613;-64
2022/12/03 11:56:47;;;;;;;106.03;34.60;;;1.40;99.90;;;;;;4383649;28;657939;-65
2022/12/03 11:59:36;;;;;;;137.37;40.77;;;1.40;99.90;;;;;;4408340;28;658897;-64
2022/12/03 12:02:24;;;;;;;112.83;36.23;;;1.30;99.90;;;;;;4409527;28;658159;-63
2022/12/03 12:05:18;;;;;;;109.40;35.20;;;1.30;99.90;;;;;;4386067;28;658789;-64
2022/12/03 12:08:05;;;;;;;140.80;46.20;;;1.30;99.90;;;;;;4363466;28;658406;-65
2022/12/03 12:10:53;;;;;;;136.13;41.97;;;1.30;99.90;;;;;;4415048;28;659180;-64
2022/12/03 12:13:51;;;;;;;112.43;34.13;;;1.30;99.90;;;;;;4407199;28;658567;-65
2022/12/03 12:16:48;;;;;;;93.33;30.73;;;1.20;99.90;;;;;;4393059;28;659293;-64
2022/12/03 12:19:37;;;;;;;93.57;31.60;;;1.20;99.90;;;;;;4366545;28;657191;-64
2022/12/03 12:22:30;;;;;;;101.47;32.87;;;1.20;99.90;;;;;;4412143;28;657170;-64
2022/12/03 12:25:38;;;;;;;93.47;32.43;;;1.20;99.90;;;;;;4366036;28;659933;-64
2022/12/03 12:28:25;;;;;;;96.33;30.77;;;1.00;99.90;;;;;;4390121;28;657633;-65
2022/12/03 12:31:12;;;;;;;92.80;31.00;;;1.10;99.90;;;;;;4409982;28;657606;-64
2022/12/03 12:34:01;;;;;;;89.60;29.93;;;1.10;99.90;;;;;;4412826;28;657670;-64
2022/12/03 12:36:48;;;;;;;97.40;30.70;;;1.10;99.90;;;;;;4389619;28;658942;-64
2022/12/03 12:39:35;;;;;;;89.70;30.07;;;1.10;99.90;;;;;;4403456;28;658842;-65
2022/12/03 12:42:29;;;;;;;96.77;29.90;;;0.90;99.90;;;;;;4417524;28;659042;-65
2022/12/03 12:45:17;;;;;;;110.77;32.37;;;0.70;99.90;;;;;;4394598;28;657639;-64
2022/12/03 12:48:09;;;;;;;97.57;32.80;;;0.70;99.90;;;;;;4410682;28;658961;-64
2022/12/03 12:51:06;;;;;;;122.93;39.20;;;0.70;99.90;;;;;;4386504;28;658137;-64
2022/12/03 12:53:53;;;;;;;111.05;39.53;;;0.70;99.90;;;;;;4388874;28;659262;-64
2022/12/03 12:56:41;;;;;;;116.57;37.40;;;0.80;99.90;;;;;;4387985;28;658834;-63
2022/12/03 12:59:28;;;;;;;101.75;34.08;;;0.70;99.90;;;;;;4409512;28;659189;-64
2022/12/03 13:02:34;;;;;;;116.60;38.20;;;0.80;99.90;;;;;;4845422;28;659386;-64
2022/12/03 13:05:21;;;;;;;115.77;36.17;;;0.80;99.90;;;;;;4360024;28;659601;-64
2022/12/03 13:08:18;;;;;;;106.17;35.93;;;0.80;99.90;;;;;;4410193;28;657468;-64
2022/12/03 13:11:06;;;;;;;102.70;35.27;;;0.80;99.90;;;;;;4362203;28;659958;-64
2022/12/03 13:13:53;;;;;;;111.07;37.27;;;0.80;99.90;;;;;;4414135;28;659068;-65
2022/12/03 13:16:40;;;;;;;116.77;37.97;;;0.70;99.90;;;;;;4392414;28;658760;-65
2022/12/03 13:19:29;;;;;;;114.53;33.97;;;0.70;99.90;;;;;;4411846;28;659055;-64
2022/12/03 13:22:17;;;;;;;134.57;34.53;;;0.70;99.90;;;;;;4386493;28;658545;-64
2022/12/03 13:25:30;;;;;;;103.60;33.93;;;0.60;99.90;;;;;;4405238;28;658444;-66
2022/12/03 13:28:17;;;;;;;113.67;33.67;;;0.60;99.90;;;;;;4368921;28;660148;-64
2022/12/03 13:31:20;;;;;;;115.63;35.63;;;0.60;99.90;;;;;;4407984;28;660127;-63
2022/12/03 13:34:12;;;;;;;89.50;31.67;;;0.50;99.90;;;;;;4391471;28;659042;-64
2022/12/03 13:36:59;;;;;;;91.80;30.57;;;0.40;99.90;;;;;;4388970;28;658138;-64
2022/12/03 13:39:47;;;;;;;94.20;31.03;;;0.30;99.90;;;;;;4397464;28;657563;-64
2022/12/03 13:42:39;;;;;;;94.63;31.23;;;0.30;99.90;;;;;;4411641;28;658287;-64
2022/12/03 13:45:31;;;;;;;99.95;31.15;;;0.30;99.90;;;;;;4367954;28;659282;-64
2022/12/03 13:48:21;;;;;;;100.97;29.67;;;0.30;99.90;;;;;;4388771;28;658507;-65
2022/12/03 13:51:14;;;;;;;113.53;30.40;;;0.20;99.90;;;;;;4383624;28;659197;-64
2022/12/03 13:54:01;;;;;;;96.83;29.97;;;0.10;99.90;;;;;;4391556;28;659024;-64
2022/12/03 13:56:48;;;;;;;115.17;29.73;;;0.00;99.90;;;;;;4407983;28;659109;-64
2022/12/03 13:59:37;;;;;;;128.63;39.10;;;0.10;99.90;;;;;;4392842;28;658516;-64
2022/12/03 14:02:24;;;;;;;116.37;35.13;;;0.10;99.90;;;;;;4408069;28;658556;-65
2022/12/03 14:05:11;;;;;;;125.40;38.83;;;0.00;99.90;;;;;;4387182;28;659092;-64
2022/12/03 14:08:00;;;;;;;126.23;37.43;;;0.10;99.90;;;;;;4416727;28;658963;-64
2022/12/03 14:10:47;;;;;;;146.20;38.33;;;0.10;99.90;;;;;;4380622;28;659591;-63
2022/12/03 14:13:35;;;;;;;115.87;31.53;;;0.10;99.90;;;;;;4405292;28;658709;-65
2022/12/03 14:16:23;;;;;;;118.45;34.92;;;0.00;99.90;;;;;;4411980;28;658462;-64
2022/12/03 14:19:11;;;;;;;140.50;37.57;;;0.00;99.90;;;;;;4388204;28;658593;-65
2022/12/03 14:21:59;;;;;;;125.87;35.97;;;-0.10;99.90;;;;;;4415781;28;662344;-65
2022/12/03 14:24:46;;;;;;;146.17;44.87;;;0.00;99.90;;;;;;4387384;28;659518;-64
2022/12/03 14:27:33;;;;;;;122.83;35.83;;;-0.10;99.90;;;;;;4410765;28;658619;-64
2022/12/03 14:30:20;;;;;;;121.07;38.17;;;-0.10;99.90;;;;;;4387180;28;660514;-65